Terminal Aerodrome Forecast
Issued by NWS El Paso, TX

Home | Current Version | Previous Version | Text Only | Print | Product List | Glossary On
Versions: 1 2 3 4 5 6 7 8 9 10 11 12 13 14 15 16
000
FTUS44 KEPZ 011929 AAA
TAFELP
TAF AMD
KELP 011929Z 0119/0218 02007KT P6SM FEW060 FEW250
     FM012000 13008KT P6SM VCTS SCT080CB SCT250
     FM021200 22007KT P6SM SCT100=

USA.gov is the U.S. government's official web portal to all federal, state and local government web resources and services.